Steptoe Valley WMA, Nevada Weather observations

Data are for 10 minute period ending at time listed.
 Day   Time   Solar   Ave.   Ave.  Ave.  Vector  Max.   Baro.   Total    
  of    of     Rad.   Air    Rel.  Wind   Wind   Wind  Press.  Precip.   
Year   Day            Temp.  Hum.  Speed  Dir.   Gust                    
2026   (PST)  Kw/m2    F      %     mph   deg.    mph    mb.     in.     
-------------------------------------------------------------------------
 125    2:20   0.00   29.5    87    3.0   173     5.3   796.2    0.00 
 125    2:30   0.00   28.7    89    0.4   192     1.7   796.3    0.00 
 125    2:40   0.00   28.7    93    2.2   153     4.4   796.4    0.00 
 125    2:50   0.00   29.3    92    4.3   158     5.0   796.4    0.00 
 125    3:00   0.00   30.5    89    4.1   156     5.5   796.4    0.00 
 125    3:10   0.00   30.1    82    1.7   152     4.4   796.5    0.00 
 125    3:20   0.00   27.2    89    0.4    36     2.5   796.6    0.00 
 125    3:30   0.00   27.6    90    0.4    38     1.7   796.6    0.00 
 125    3:40   0.00   27.9    88    0.9   105     2.9   796.6    0.00 
 125    3:50   0.00   27.0    87    2.5   157     3.2   796.7    0.00 
 125    4:00   0.00   26.7    87    2.1   169     3.6   796.7    0.00 
 125    4:10   0.00   26.7    88    2.1   170     3.6   796.7    0.00 
 125    4:20   0.00   25.4    87    3.2   176     5.3   796.7    0.00 
 125    4:30   0.00   25.8    89    4.0   160     5.2   796.6    0.00 
 125    4:40   0.00   26.9    87    3.5   160     5.3   796.7    0.00 
 125    4:50   0.01   25.9    88    5.5   155     7.8   796.7    0.00 
 125    5:00   0.01   24.9    90    5.0   155     6.6   796.8    0.00 
 125    5:10   0.02   25.6    88    4.6   159     6.1   796.8    0.00 
 125    5:20   0.02   27.1    87    4.7   165     6.4   796.9    0.00 
 125    5:30   0.03   30.3    82    4.1   190     6.6   797.0    0.00 
 125    5:40   0.08   29.9    84    4.0   165     5.1   797.0    0.00 
 125    5:50   0.17   31.0    83    3.3   157     4.6   796.9    0.00 
 125    6:00   0.20   33.8    82    3.9   166     5.8   797.0    0.00 
 125    6:10   0.24   36.2    76    4.9   183     7.1   797.0    0.00 
 125    6:20   0.27   38.5    69    6.2   192     8.2   797.0    0.00 
 125    6:30   0.30   39.9    65    6.5   196     9.2   796.9    0.00 
 125    6:40   0.33   41.7    60    5.0   186     6.9   796.9    0.00 
 125    6:50   0.37   43.6    56    4.9   195     7.5   796.9    0.00 
 125    7:00   0.40   45.1    52    5.6   193     8.4   796.8    0.00 
 125    7:10   0.43   46.5    48    4.2   171     6.7   796.8    0.00 
 125    7:20   0.47   47.7    45    3.9   181     7.4   796.7    0.00 
 125    7:30   0.50   48.8    44    3.5   162     6.6   796.6    0.00 
 125    7:40   0.54   50.3    43    2.4   178     4.8   796.7    0.00 
 125    7:50   0.57   51.9    40    1.5   170     4.6   796.7    0.00 
 125    8:00   0.60   51.9    40    2.4   238     4.3   796.6    0.00 
 125    8:10   0.63   51.0    40    2.5   346     4.9   796.7    0.00 
 125    8:20   0.66   52.0    40    2.4    36     5.4   796.7    0.00 
 125    8:30   0.69   52.2    40    4.3     8     8.4   796.8    0.00 
 125    8:40   0.72   52.4    40    2.8    22     7.0   796.8    0.00 
 125    8:50   0.74   53.5    40    5.5   332    10.5   796.9    0.00 
 125    9:00   0.77   53.4    40    4.1   315    10.2   797.0    0.00 
 125    9:10   0.80   53.4    40    4.9    10    11.1   796.9    0.00 
 125    9:20   0.83   54.2    39    6.1   348    13.8   797.0    0.00 
 125    9:30   0.87   54.5    39    8.9   347    15.4   797.0    0.00 
 125    9:40   0.89   54.9    38    6.3   346    14.9   797.1    0.00 
 125    9:50   0.92   55.4    37    8.2   348    14.7   797.1    0.00 
 125   10:00   0.94   55.4    37    6.2   341    13.3   797.1    0.00 
 125   10:10   0.97   56.5    36    7.0   355    12.5   797.2    0.00 
 125   10:20   1.00   56.8    34    5.5   350    12.3   797.1    0.00 
 125   10:30   0.79   58.0    33    5.3     8    12.8   797.1    0.00 
 125   10:40   0.58   56.2    31    3.8     9    11.3   797.1    0.00 
 125   10:50   0.30   55.2    34    6.9     3    12.9   797.2    0.00 
 125   11:00   0.36   54.7    35    6.0   359    10.6   797.1    0.00 
 125   11:10   0.36   55.5    35    4.6   341    12.0   797.0    0.00 
 125   11:20   0.30   54.7    39    8.4   350    15.0   797.1    0.00 
 125   11:30   0.28   53.3    46   11.9   350    19.0   797.1    0.00 
 125   11:40   0.32   53.2    43   12.2   352    16.4   797.2    0.00 
 125   11:50   0.34   53.2    41   12.4     8    17.4   797.2    0.00 
 125   12:00   0.38   53.3    42   10.3    26    15.9   797.2    0.00 
 125   12:10   0.47   52.9    42   10.5    25    15.8   797.2    0.00 
 125   12:20   0.73   54.5    40    9.9    18    17.1   797.1    0.00 
 125   12:30   0.86   55.7    40   10.8   360    17.5   797.2    0.00 
 125   12:40   0.88   56.6    38    9.5   358    17.2   797.2    0.00 
 125   12:50   0.69   56.6    39   12.3   347    17.5   797.2    0.00 
 125   13:00   0.64   55.5    41   10.8   350    17.8   797.2    0.00 
 125   13:10   0.74   55.7    42   11.9   345    17.8   797.1    0.00 
 125   13:20   0.88   56.6    43   12.2   355    20.9   797.0    0.00 
 125   13:30   0.92   57.5    42   13.0   345    19.2   797.0    0.00 
 125   13:40   0.89   57.1    41   12.9   359    20.7   797.0    0.00 
 125   13:50   0.79   57.0    42   12.6   341    19.9   797.0    0.00 
 125   14:00   0.84   57.8    41   12.0   339    17.9   796.9    0.00 
 125   14:10   0.48   56.5    42   11.0   336    17.2   796.9    0.00 
 125   14:20   0.32   54.6    47   16.8   347    25.7   797.0    0.00 
 125   14:30   0.36   53.9    49   15.9   347    21.2   797.1    0.00 
 125   14:40   0.33   53.5    50   12.2   340    16.9   797.2    0.00 
 125   14:50   0.36   54.0    47   12.3   340    18.1   797.0    0.00 
 125   15:00   0.27   53.4    48    9.7   358    16.0   797.0    0.00 
 125   15:10   0.19   52.7    47    7.7    14    14.6   797.0    0.00 
 125   15:20   0.16   52.6    47    8.1    10    12.6   797.1    0.00 
 125   15:30   0.21   52.6    47    8.1     8    13.9   797.1    0.00 
 125   15:40   0.20   52.7    45   10.4     2    15.7   797.1    0.00 
 125   15:50   0.15   52.2    46   10.6    12    17.0   797.2    0.00 
 125   16:00   0.14   51.5    46    9.1     2    15.1   797.1    0.00 
 125   16:10   0.13   51.3    49   11.2   344    15.8   797.2    0.00 
 125   16:20   0.11   50.9    51   11.6   354    16.9   797.3    0.00 
 125   16:30   0.09   50.3    54   14.5   352    20.3   797.5    0.00 
 125   16:40   0.09   49.0    59   12.2   341    17.1   797.6    0.00 
 125   16:50   0.10   49.1    60   10.4   334    14.0   797.6    0.00 
 125   17:00   0.08   49.1    58   10.2   331    14.4   797.6    0.00 
 125   17:10   0.05   49.0    57    8.2   340    13.5   797.7    0.00 
 125   17:20   0.02   48.5    58    6.8   340     9.2   797.8    0.00 
 125   17:30   0.02   47.1    68    7.4   352    11.3   797.9    0.00 
 125   17:40   0.02   46.3    70    6.9     0    11.1   797.9    0.00 
 125   17:50   0.03   46.0    74    3.3   344     6.5   797.8    0.00 
 125   18:00   0.02   45.4    76    2.4   326     3.4   797.8    0.00 
 125   18:10   0.01   44.4    79    1.8   316     2.9   797.9    0.00 
 125   18:20   0.01   43.9    79    0.2   321     1.1   797.9    0.00 
 125   18:30   0.00   43.8    79    2.6   354     3.9   798.1    0.00 
 125   18:40   0.00   43.6    81    5.0   351     9.7   798.2    0.00 
 125   18:50   0.00   44.3    83    6.8   342     9.5   798.3    0.00 
 125   19:00   0.00   44.3    82    5.9   350     8.3   798.4    0.00 
 125   19:10   0.00   44.6    80    7.2     6    10.5   798.6    0.00 
 125   19:20   0.00   44.8    84    6.9    13     9.4   798.9    0.00 
 125   19:30   0.00   44.3    86    6.2   356     9.2   799.2    0.00 
 125   19:40   0.00   43.8    90    6.3   356     9.7   799.6    0.01 
 125   19:50   0.00   43.4    90    3.8    28     7.4   799.6    0.03 
 125   20:00   0.00   42.7    90    5.4   196     8.3   799.0    0.01 
 125   20:10   0.00   42.3    94    4.1   199     7.6   799.0    0.00 
 125   20:20   0.00   41.6    95    3.7    98     4.5   799.3    0.00 
 125   20:30   0.00   41.1    94    4.9   116     6.5   799.4    0.00 
 125   20:40   0.00   40.7    94    4.4   115     5.8   799.5    0.00 
 125   20:50   0.00   40.0    94    4.8   101     6.5   799.5    0.00 
 125   21:00   0.00   39.6    94    3.9   103     6.6   799.6    0.00 
 125   21:10   0.00   39.1    95    3.6    76     5.1   799.7    0.00 
 125   21:20   0.00   38.9    94    2.6    70     5.0   799.8    0.00 
 125   21:30   0.00   37.7    95    2.2   198     4.1   799.7    0.00 
 125   21:40   0.00   37.5    97    2.2   140     3.4   799.8    0.00 
 125   21:50   0.00   38.3    96    1.8   116     3.2   799.9    0.00 
 125   22:00   0.00   38.1    96    1.2   351     2.5   800.1    0.00 
 125   22:10   0.00   37.7    97    1.8   208     3.1   800.0    0.00 
 125   22:20   0.00   35.9    96    0.7   245     2.9   800.0    0.00 
 125   22:30   0.00   36.2    99    3.4    78     6.3   800.1    0.00 
 125   22:40   0.00   37.2    99    5.2    90     7.0   800.1    0.00 
 125   22:50   0.00   37.5    98    4.6   106     6.1   800.1    0.00 
 125   23:00   0.00   37.0    97    4.9   107     6.4   800.1    0.00 
 125   23:10   0.00   37.4    96    5.9   112     7.4   800.0    0.00 
 125   23:20   0.00   36.8    96    4.0    59     6.4   800.4    0.00 
 125   23:30   0.00   36.2    98    3.2   222     6.1   800.5    0.00 
 125   23:40   0.00   36.0    98    2.7   154     3.8   800.6    0.00 
 125   23:50   0.00   36.6    99    3.7   102     6.6   800.7    0.00 
 126    0:00   0.00   36.5    98    4.2   100     5.4   800.7    0.00 
 126    0:10   0.00   35.7    98    5.2   100     6.2   800.7    0.00 
 126    0:20   0.00   35.2    99    4.2    96     5.9   800.6    0.00 
 126    0:30   0.00   34.5    98    2.1   174     3.2   800.7    0.00 
 126    0:40   0.00   33.1    98    2.7   154     3.4   800.7    0.00 
 126    0:50   0.00   33.1    99    2.9   165     4.8   800.7    0.01 
 126    1:00   0.00   32.8    99    2.9   164     3.7   800.7    0.00 
 126    1:10   0.00   32.7    99    3.2   125     4.9   800.7    0.00 
 126    1:20   0.00   33.1    99    2.6   157     3.6   800.8    0.00 
 126    1:30   0.00   32.5    98    3.8   170     5.0   800.9    0.00 
 126    1:40   0.00   32.6    98    1.2   167     4.6   801.0    0.00 
 126    1:50   0.00   31.7    98    1.4   171     3.3   801.1    0.00 
 126    2:00   0.00   30.7    98    2.6   159     3.8   801.1    0.00 
 126    2:10   0.00   31.0   100    2.6   160     4.5   801.1    0.00 

Return to Steptoe Valley WMA graphs page.


Western Regional Climate Center,wrcc@dri.edu